EPWA/WAW METAR and TAF weather

Enter ICAO airport designator
Station Type Date Time Source
EPWA METAR 2019/11/21 03:30 UTC NOAA

EPWA 210330Z 10016KT 9999 BKN011 09/08 Q1018 TEMPO BKN010


Station Type Date Time Source
EPWA Decoded METAR 2019/11/21 03:30 UTC NOAA

Warszawa-Okecie, Poland (EPWA) 52-10N 020-58E 107M
Nov 20, 2019 - 10:30 PM EST / 2019.11.21 0330 UTC
Wind: from the E (100 degrees) at 18 MPH (16 KT):0
Visibility: greater than 7 mile(s):0
Sky conditions: mostly cloudy
Temperature: 48 F (9 C)
Dew Point: 46 F (8 C)
Relative Humidity: 93%
Pressure (altimeter): 30.06 in. Hg (1018 hPa)
ob: EPWA 210330Z 10016KT 9999 BKN011 09/08 Q1018 TEMPO BKN010
cycle: 3

Station Type Date Time Source
EPWA TAF 2019/11/21 03:37 UTC NOAA

TAF EPWA 210230Z 2103/2203 10014KT 9999 BKN013
TEMPO 2103/2108 11017G27KT BKN009
BECMG 2108/2111 BKN017
TEMPO 2108/2124 11018G32KT RA

Example: see airport list